Time;durP1;ratioP1;P1;durP2;ratioP2;P2;SDS_P1;SDS_P2;PMS_P1;PMS_P2;Temp;Humidity;BMP_temperature;BMP_pressure;BME280_temperature;BME280_humidity;BME280_pressure;Samples;Min_cycle;Max_cycle;Signal;HPM_P1;HPM_P2
2022/07/05 00:03:43;;;;;;;;;;;;;;;14.15;75.18;99656.16;8342422;28;19925;-76
2022/07/05 00:07:45;;;;;;;;;;;;;;;14.10;75.69;99653.63;8337309;28;19928;-76
2022/07/05 00:11:46;;;;;;;;;;;;;;;14.01;75.67;99652.91;8337771;28;20457;-77
2022/07/05 00:15:48;;;;;;;;;;;;;;;13.94;75.82;99656.47;8333786;28;20044;-77
2022/07/05 00:19:49;;;;;;;;;;;;;;;13.91;75.98;99662.59;8356889;28;20321;-77
2022/07/05 00:23:51;;;;;;;;;;;;;;;13.93;76.17;99663.44;8344236;28;19998;-77
2022/07/05 00:27:53;;;;;;;;;;;;;;;13.85;76.63;99665.31;8352612;28;19932;-77
2022/07/05 00:31:54;;;;;;;;;;;;;;;13.82;77.00;99663.59;8323021;28;20395;-76
2022/07/05 00:35:56;;;;;;;;;;;;;;;13.74;77.44;99662.81;8345062;28;20651;-77
2022/07/05 00:39:57;;;;;;;;;;;;;;;13.62;78.52;99670.78;8354682;28;20015;-77
2022/07/05 00:44:00;;;;;;;;;;;;;;;13.62;77.91;99670.78;8348206;28;20028;-77
2022/07/05 00:48:01;;;;;;;;;;;;;;;13.58;78.49;99661.28;8353135;28;20348;-77
2022/07/05 00:52:03;;;;;;;;;;;;;;;13.54;78.19;99664.81;8351639;28;19928;-75
2022/07/05 00:56:23;;;;;;;;;;;;;;;13.47;78.70;99665.78;8326672;28;19928;-77
2022/07/05 01:00:24;;;;;;;;;;;;;;;13.44;78.88;99668.41;8354287;28;20051;-77
2022/07/05 01:04:26;;;;;;;;;;;;;;;13.39;79.35;99662.38;8331320;28;20558;-77
2022/07/05 01:08:28;;;;;;;;;;;;;;;13.31;79.29;99670.31;8330636;28;19961;-76
2022/07/05 01:12:29;;;;;;;;;;;;;;;13.25;79.92;99676.44;8353878;28;19929;-76
2022/07/05 01:16:31;;;;;;;;;;;;;;;13.19;79.58;99673.91;8350655;28;19928;-77
2022/07/05 01:20:33;;;;;;;;;;;;;;;13.11;79.87;99677.44;8325761;28;20020;-76
2022/07/05 01:24:34;;;;;;;;;;;;;;;13.11;80.06;99674.84;8349710;28;19929;-76
2022/07/05 01:28:36;;;;;;;;;;;;;;;13.11;80.32;99678.31;8314533;28;20408;-76
2022/07/05 01:32:37;;;;;;;;;;;;;;;13.07;80.10;99683.53;8347041;28;19929;-76
2022/07/05 01:36:38;;;;;;;;;;;;;;;13.01;79.94;99682.75;8334337;28;20037;-76
2022/07/05 01:40:40;;;;;;;;;;;;;;;12.92;79.83;99688.03;8347545;28;19965;-76
2022/07/05 01:44:41;;;;;;;;;;;;;;;12.79;80.08;99686.44;8308385;28;20039;-76
2022/07/05 01:48:44;;;;;;;;;;;;;;;12.66;80.62;99688.25;8325964;28;19968;-76
2022/07/05 01:52:46;;;;;;;;;;;;;;;12.64;80.80;99694.38;8328480;28;20000;-76
2022/07/05 01:56:48;;;;;;;;;;;;;;;12.66;81.36;99690.00;8350643;28;19929;-76
2022/07/05 02:00:51;;;;;;;;;;;;;;;12.65;81.32;99691.75;8320847;28;19928;-76
2022/07/05 02:04:52;;;;;;;;;;;;;;;12.54;81.36;99693.56;8321619;28;19933;-76
2022/07/05 02:08:54;;;;;;;;;;;;;;;12.46;81.48;99695.38;8354875;28;20406;-76
2022/07/05 02:12:55;;;;;;;;;;;;;;;12.34;82.17;99687.63;8338724;28;19939;-76
2022/07/05 02:16:57;;;;;;;;;;;;;;;12.30;82.83;99691.13;8334263;28;19928;-76
2022/07/05 02:20:58;;;;;;;;;;;;;;;12.30;82.80;99693.75;8335569;28;19940;-76
2022/07/05 02:24:59;;;;;;;;;;;;;;;12.22;82.65;99696.41;8322938;28;19928;-76
2022/07/05 02:29:02;;;;;;;;;;;;;;;12.21;83.25;99691.19;8361469;28;19983;-76
2022/07/05 02:33:03;;;;;;;;;;;;;;;12.17;82.88;99697.28;8336309;28;19995;-77
2022/07/05 02:37:05;;;;;;;;;;;;;;;12.06;83.12;99693.03;8355448;28;19929;-76
2022/07/05 02:41:07;;;;;;;;;;;;;;;12.00;83.17;99694.78;8343100;28;20032;-76
2022/07/05 02:45:09;;;;;;;;;;;;;;;11.96;83.62;99688.72;8339428;28;19960;-76
2022/07/05 02:49:10;;;;;;;;;;;;;;;11.92;83.61;99688.75;8340401;28;19929;-76
2022/07/05 02:53:11;;;;;;;;;;;;;;;11.88;83.66;99693.13;8355110;28;19929;-76
2022/07/05 02:57:13;;;;;;;;;;;;;;;11.83;83.65;99696.59;8340106;28;19976;-77
2022/07/05 03:01:14;;;;;;;;;;;;;;;11.84;83.81;99687.91;8331016;28;19929;-76
2022/07/05 03:05:16;;;;;;;;;;;;;;;11.78;84.04;99691.38;8319626;28;19934;-76
2022/07/05 03:09:17;;;;;;;;;;;;;;;11.72;83.93;99701.81;8341804;28;20030;-76
2022/07/05 03:13:18;;;;;;;;;;;;;;;11.62;84.43;99706.19;8331818;28;19925;-76
2022/07/05 03:17:20;;;;;;;;;;;;;;;11.60;84.11;99701.88;8333734;28;19928;-76
2022/07/05 03:21:21;;;;;;;;;;;;;;;11.56;84.21;99711.41;8347797;28;19929;-76
2022/07/05 03:25:23;;;;;;;;;;;;;;;11.51;84.70;99713.19;8313773;28;20023;-76
2022/07/05 03:29:24;;;;;;;;;;;;;;;11.42;84.76;99710.59;8332685;28;19929;-76
2022/07/05 03:33:25;;;;;;;;;;;;;;;11.39;84.74;99705.41;8347704;28;19936;-76
2022/07/05 03:37:30;;;;;;;;;;;;;;;11.31;85.21;99710.63;8330062;28;19986;-74
2022/07/05 03:41:31;;;;;;;;;;;;;;;11.36;85.86;99721.88;8353455;28;19999;-76
2022/07/05 03:45:33;;;;;;;;;;;;;;;11.39;85.46;99715.81;8351707;28;19943;-76
2022/07/05 03:49:34;;;;;;;;;;;;;;;11.34;85.11;99717.56;8349814;28;19940;-76
2022/07/05 03:53:35;;;;;;;;;;;;;;;11.31;85.49;99728.84;8328650;28;20225;-74
2022/07/05 03:57:37;;;;;;;;;;;;;;;11.42;85.35;99734.00;8345670;28;19929;-75
2022/07/05 04:01:38;;;;;;;;;;;;;;;11.45;85.17;99729.63;8352801;28;19994;-76
2022/07/05 04:05:39;;;;;;;;;;;;;;;11.49;84.74;99735.72;8346398;28;20333;-76
2022/07/05 04:09:41;;;;;;;;;;;;;;;11.47;84.38;99740.03;8326959;28;19935;-76
2022/07/05 04:13:43;;;;;;;;;;;;;;;11.41;85.02;99730.53;8305187;28;19939;-76
2022/07/05 04:17:51;;;;;;;;;;;;;;;11.44;85.21;99738.31;8347566;28;19939;-74
2022/07/05 04:21:53;;;;;;;;;;;;;;;11.56;85.15;99740.03;8330372;28;19933;-76
2022/07/05 04:25:54;;;;;;;;;;;;;;;11.68;84.57;99741.75;8347483;28;19928;-76
2022/07/05 04:29:55;;;;;;;;;;;;;;;11.86;83.29;99752.09;8325533;28;19929;-76
2022/07/05 04:33:57;;;;;;;;;;;;;;;12.02;82.47;99745.94;8347023;28;20234;-76
2022/07/05 04:37:58;;;;;;;;;;;;;;;12.16;82.54;99747.63;8326718;28;19929;-76
2022/07/05 04:41:59;;;;;;;;;;;;;;;12.23;82.73;99751.94;8331346;28;19929;-76
2022/07/05 04:46:01;;;;;;;;;;;;;;;12.36;82.40;99754.44;8342760;28;19972;-76
2022/07/05 04:50:03;;;;;;;;;;;;;;;12.54;82.01;99757.81;8327068;28;20636;-76
2022/07/05 04:54:04;;;;;;;;;;;;;;;12.68;81.36;99754.25;8332754;28;19929;-76
2022/07/05 04:58:06;;;;;;;;;;;;;;;12.89;80.14;99754.94;8347682;28;19976;-76
2022/07/05 05:02:07;;;;;;;;;;;;;;;13.06;80.21;99760.88;8348767;28;19968;-76
2022/07/05 05:06:09;;;;;;;;;;;;;;;13.27;80.23;99762.47;8329853;28;19929;-77
2022/07/05 05:10:10;;;;;;;;;;;;;;;13.54;79.58;99753.53;8322555;28;19936;-76
2022/07/05 05:14:12;;;;;;;;;;;;;;;13.81;78.57;99761.03;8338203;28;19929;-77
2022/07/05 05:18:15;;;;;;;;;;;;;;;14.11;77.08;99759.81;8349819;28;19933;-75
2022/07/05 05:22:16;;;;;;;;;;;;;;;14.39;75.96;99764.66;8327770;28;19971;-76
2022/07/05 05:26:17;;;;;;;;;;;;;;;14.64;75.17;99771.28;8329426;28;19929;-76
2022/07/05 05:30:19;;;;;;;;;;;;;;;14.87;74.85;99763.09;8323994;28;19972;-76
2022/07/05 05:34:20;;;;;;;;;;;;;;;15.17;73.48;99766.97;8347722;28;19967;-76
2022/07/05 05:38:22;;;;;;;;;;;;;;;15.53;72.52;99768.06;8330582;28;19928;-76
2022/07/05 05:42:24;;;;;;;;;;;;;;;15.94;71.29;99777.78;8348364;28;20041;-75
2022/07/05 05:46:25;;;;;;;;;;;;;;;16.47;69.80;99767.06;8314193;28;19937;-75
2022/07/05 05:50:32;;;;;;;;;;;;;;;17.12;67.46;99770.78;8312993;28;20003;-76
2022/07/05 05:54:33;;;;;;;;;;;;;;;17.79;65.24;99776.94;8348315;28;19983;-76
2022/07/05 05:58:34;;;;;;;;;;;;;;;18.35;62.85;99784.94;8325874;28;20448;-76
2022/07/05 06:02:44;;;;;;;;;;;;;;;18.82;61.61;99785.28;8332104;28;19929;-76
2022/07/05 06:06:45;;;;;;;;;;;;;;;19.30;60.04;99793.34;8352789;28;20606;-76
2022/07/05 06:10:47;;;;;;;;;;;;;;;19.77;57.80;99795.31;8337798;28;19959;-76
2022/07/05 06:14:57;;;;;;;;;;;;;;;20.37;56.01;99789.53;8350998;28;19928;-76
2022/07/05 06:18:59;;;;;;;;;;;;;;;20.95;53.60;99794.34;8337586;28;19929;-76
2022/07/05 06:23:01;;;;;;;;;;;;;;;21.62;51.99;99794.22;8328051;28;20321;-76
2022/07/05 06:27:04;;;;;;;;;;;;;;;22.07;49.76;99795.78;8316478;28;19939;-76
2022/07/05 06:31:05;;;;;;;;;;;;;;;22.55;48.46;99805.91;8332578;28;19947;-76
2022/07/05 06:35:07;;;;;;;;;;;;;;;22.96;47.81;99803.09;8336215;28;19933;-75
2022/07/05 06:39:08;;;;;;;;;;;;;;;23.32;46.58;99801.28;8335692;28;19929;-76
2022/07/05 06:43:11;;;;;;;;;;;;;;;23.59;44.65;99803.53;8347315;28;19925;-75
2022/07/05 06:47:15;;;;;;;;;;;;;;;23.83;45.16;99812.00;8331765;28;19960;-76
2022/07/05 06:51:16;;;;;;;;;;;;;;;23.87;44.20;99806.44;8353659;28;19939;-76
2022/07/05 06:55:18;;;;;;;;;;;;;;;23.88;43.20;99809.94;8335430;28;20016;-75
2022/07/05 06:59:20;;;;;;;;;;;;;;;24.00;43.67;99814.63;8320895;28;19929;-76
2022/07/05 07:03:41;;;;;;;;;;;;;;;24.23;43.31;99816.91;8352550;28;20006;-75
2022/07/05 07:12:22;;;;;;;;;;;;;;;24.70;42.99;99817.00;8328929;28;20371;-74
2022/07/05 07:16:24;;;;;;;;;;;;;;;25.03;40.67;99824.06;8341157;28;20021;-75
2022/07/05 07:20:25;;;;;;;;;;;;;;;25.19;40.19;99829.34;8332129;28;19963;-74
2022/07/05 07:24:27;;;;;;;;;;;;;;;25.21;39.68;99828.31;8350948;28;19929;-74
2022/07/05 07:28:29;;;;;;;;;;;;;;;25.50;39.19;99825.78;8351462;28;19961;-75
2022/07/05 07:32:31;;;;;;;;;;;;;;;25.42;37.47;99825.34;8349628;28;19939;-74
2022/07/05 07:36:32;;;;;;;;;;;;;;;25.62;37.05;99833.00;8332216;28;19937;-74
2022/07/05 07:40:33;;;;;;;;;;;;;;;25.79;37.27;99822.25;8350222;28;19933;-74
2022/07/05 07:44:35;;;;;;;;;;;;;;;26.10;38.40;99829.25;8353755;28;19939;-74
2022/07/05 07:48:36;;;;;;;;;;;;;;;26.35;36.88;99820.59;8323881;28;19929;-74
2022/07/05 07:52:38;;;;;;;;;;;;;;;26.39;35.75;99829.25;8352764;28;20349;-74
2022/07/05 07:56:39;;;;;;;;;;;;;;;26.36;35.34;99822.31;8333837;28;19928;-74
2022/07/05 08:00:41;;;;;;;;;;;;;;;26.65;34.85;99822.31;8350033;28;20114;-74
2022/07/05 08:04:42;;;;;;;;;;;;;;;26.84;34.90;99821.97;8348748;28;20024;-74
2022/07/05 08:08:45;;;;;;;;;;;;;;;27.01;35.13;99822.63;8346090;28;19928;-74
2022/07/05 08:12:46;;;;;;;;;;;;;;;26.97;36.19;99825.56;8347143;28;19929;-74
2022/07/05 08:16:48;;;;;;;;;;;;;;;27.00;34.92;99822.72;8344643;28;19929;-74
2022/07/05 08:25:14;;;;;;;;;;;;;;;27.31;33.77;99825.09;8345564;28;19928;-74
2022/07/05 08:29:15;;;;;;;;;;;;;;;27.33;32.73;99820.50;8314345;28;19929;-73
2022/07/05 08:33:24;;;;;;;;;;;;;;;27.59;34.00;99820.56;8335543;28;19964;-73
2022/07/05 08:37:25;;;;;;;;;;;;;;;27.84;32.56;99809.97;8346971;28;19972;-73
2022/07/05 08:41:28;;;;;;;;;;;;;;;28.00;33.02;99812.38;8352295;28;19935;-73
2022/07/05 08:45:30;;;;;;;;;;;;;;;28.31;33.06;99815.63;8332050;28;19967;-73
2022/07/05 08:49:33;;;;;;;;;;;;;;;28.67;33.21;99807.63;8332374;28;20292;-74
2022/07/05 08:53:35;;;;;;;;;;;;;;;28.36;31.47;99797.44;8333145;28;19928;-74
2022/07/05 08:57:36;;;;;;;;;;;;;;;28.39;31.25;99797.25;8340882;28;19925;-74
2022/07/05 09:01:38;;;;;;;;;;;;;;;28.29;31.90;99797.03;8350755;28;19939;-74
2022/07/05 09:05:43;;;;;;;;;;;;;;;27.98;31.31;99808.97;8345572;28;19970;-74
2022/07/05 09:09:47;;;;;;;;;;;;;;;28.22;32.76;99803.75;8342486;28;19976;-74
2022/07/05 09:13:49;;;;;;;;;;;;;;;28.22;31.41;99809.09;8348143;28;20415;-74
2022/07/05 09:18:10;;;;;;;;;;;;;;;28.52;33.05;99806.06;8342598;28;19940;-73
2022/07/05 09:22:12;;;;;;;;;;;;;;;28.88;29.42;99811.44;8343659;28;19933;-73
2022/07/05 09:26:13;;;;;;;;;;;;;;;28.72;29.13;99810.81;8343877;28;19928;-74
2022/07/05 09:30:38;;;;;;;;;;;;;;;28.76;28.99;99815.00;8322909;28;19936;-73
2022/07/05 09:34:38;;;;;;;;;;;;;;;28.72;30.20;99805.47;8327875;28;19944;-74
2022/07/05 09:38:48;;;;;;;;;;;;;;;29.06;30.28;99803.88;8354084;28;19939;-73
2022/07/05 09:42:50;;;;;;;;;;;;;;;29.06;29.14;99806.56;8355519;28;19928;-73
2022/07/05 09:47:06;;;;;;;;;;;;;;;29.01;27.44;99800.69;8352594;28;19936;-73
2022/07/05 09:51:11;;;;;;;;;;;;;;;28.68;27.52;99803.16;8357939;28;19970;-75
2022/07/05 09:55:33;;;;;;;;;;;;;;;28.59;28.59;99797.50;8350619;28;19939;-72
2022/07/05 09:59:34;;;;;;;;;;;;;;;28.64;29.49;99796.31;8350733;28;20304;-73
2022/07/05 10:03:50;;;;;;;;;;;;;;;28.88;32.87;99791.88;8329418;28;19980;-74
2022/07/05 10:07:53;;;;;;;;;;;;;;;29.07;29.88;99796.72;8316639;28;19932;-75
2022/07/05 10:11:55;;;;;;;;;;;;;;;28.93;29.14;99803.09;8335538;28;19933;-74
2022/07/05 10:15:56;;;;;;;;;;;;;;;29.07;29.14;99799.38;8347413;28;19929;-74
2022/07/05 10:19:59;;;;;;;;;;;;;;;29.16;28.02;99788.88;8350063;28;20027;-74
2022/07/05 10:24:01;;;;;;;;;;;;;;;29.34;27.09;99783.94;8352716;28;20372;-75
2022/07/05 10:28:03;;;;;;;;;;;;;;;29.47;27.01;99782.09;8329689;28;19971;-73
2022/07/05 10:32:06;;;;;;;;;;;;;;;29.63;26.92;99791.63;8339589;28;19963;-74
2022/07/05 10:36:10;;;;;;;;;;;;;;;29.57;26.81;99789.41;8299953;28;19944;-74
2022/07/05 10:40:12;;;;;;;;;;;;;;;29.01;25.67;99797.19;8307420;28;19929;-75
2022/07/05 10:44:25;;;;;;;;;;;;;;;28.56;28.01;99789.72;8307640;28;19929;-74
2022/07/05 10:48:27;;;;;;;;;;;;;;;28.68;26.17;99790.63;8302243;28;20029;-74
2022/07/05 10:52:29;;;;;;;;;;;;;;;28.82;27.71;99785.13;8300886;28;20593;-74
2022/07/05 10:56:30;;;;;;;;;;;;;;;29.00;26.34;99792.78;8286888;28;20040;-74
2022/07/05 11:00:32;;;;;;;;;;;;;;;28.84;25.07;99777.00;8286363;28;20633;-75
2022/07/05 11:04:35;;;;;;;;;;;;;;;29.02;24.93;99764.13;8308450;28;19972;-74
2022/07/05 11:08:55;;;;;;;;;;;;;;;29.08;25.77;99769.84;8286674;28;20024;-74
2022/07/05 11:12:57;;;;;;;;;;;;;;;29.23;25.17;99783.91;8288194;28;19930;-75
2022/07/05 11:17:11;;;;;;;;;;;;;;;29.41;26.45;99776.31;8287003;28;19929;-75
2022/07/05 11:21:33;;;;;;;;;;;;;;;29.52;26.33;99763.00;8277883;28;19938;-75
2022/07/05 11:25:36;;;;;;;;;;;;;;;29.59;25.56;99756.19;8286726;28;20024;-75
2022/07/05 11:29:48;;;;;;;;;;;;;;;29.46;24.02;99763.47;8276412;28;20020;-75
2022/07/05 11:33:54;;;;;;;;;;;;;;;29.28;24.08;99764.84;8310542;28;19933;-73
2022/07/05 11:37:59;;;;;;;;;;;;;;;29.08;25.24;99761.81;8336545;28;20020;-74
2022/07/05 11:42:21;;;;;;;;;;;;;;;29.00;24.61;99756.22;8330860;28;19991;-74
2022/07/05 11:46:23;;;;;;;;;;;;;;;29.03;25.60;99753.31;8329620;28;20020;-74
2022/07/05 11:50:44;;;;;;;;;;;;;;;29.10;25.14;99753.72;8330346;28;19929;-73
2022/07/05 11:54:48;;;;;;;;;;;;;;;29.15;24.80;99751.53;8332705;28;20355;-74
2022/07/05 11:58:50;;;;;;;;;;;;;;;29.29;24.75;99748.69;8333517;28;20293;-74
2022/07/05 12:02:51;;;;;;;;;;;;;;;29.46;24.16;99731.38;8312895;28;19965;-75
2022/07/05 12:06:55;;;;;;;;;;;;;;;29.75;25.30;99734.44;8319988;28;20345;-73
2022/07/05 12:15:19;;;;;;;;;;;;;;;30.04;24.39;99726.81;8326786;28;19932;-73
2022/07/05 12:19:24;;;;;;;;;;;;;;;29.98;23.75;99724.59;8332950;28;20024;-73
2022/07/05 12:23:26;;;;;;;;;;;;;;;29.92;24.11;99709.00;8313821;28;19929;-73
2022/07/05 12:27:29;;;;;;;;;;;;;;;29.78;23.06;99710.09;8329613;28;19964;-73
2022/07/05 12:31:31;;;;;;;;;;;;;;;29.69;24.24;99706.34;8327927;28;19933;-74
2022/07/05 12:35:36;;;;;;;;;;;;;;;29.92;25.87;99704.50;8289328;28;19929;-73
2022/07/05 12:39:38;;;;;;;;;;;;;;;29.96;23.59;99697.06;8284942;28;20250;-73
2022/07/05 12:43:49;;;;;;;;;;;;;;;30.00;25.09;99696.72;8269405;28;19930;-73
2022/07/05 12:47:54;;;;;;;;;;;;;;;30.03;25.30;99703.66;8309670;28;20019;-73
2022/07/05 12:52:03;;;;;;;;;;;;;;;29.79;25.19;99709.97;8301203;28;21125;-74
2022/07/05 13:00:29;;;;;;;;;;;;;;;29.52;24.71;99700.59;8298902;28;19976;-72
2022/07/05 13:04:30;;;;;;;;;;;;;;;29.67;25.89;99699.41;8302719;28;20352;-74
2022/07/05 13:08:32;;;;;;;;;;;;;;;29.60;23.97;99699.00;8300500;28;20048;-74
2022/07/05 13:12:33;;;;;;;;;;;;;;;29.71;23.00;99687.47;8294745;28;20040;-74
2022/07/05 13:16:35;;;;;;;;;;;;;;;29.71;23.41;99691.00;8285458;28;19929;-75
2022/07/05 13:20:36;;;;;;;;;;;;;;;29.75;25.83;99696.97;8298460;28;19939;-74
2022/07/05 13:24:38;;;;;;;;;;;;;;;29.82;23.92;99692.84;8296007;28;20016;-75
2022/07/05 13:28:39;;;;;;;;;;;;;;;29.96;24.64;99692.56;8276038;28;19969;-74
2022/07/05 13:32:41;;;;;;;;;;;;;;;30.04;23.49;99697.38;8304284;28;19976;-74
2022/07/05 13:36:42;;;;;;;;;;;;;;;30.01;22.05;99695.75;8322302;28;19951;-74
2022/07/05 13:40:44;;;;;;;;;;;;;;;30.12;23.13;99696.72;8329792;28;19928;-74
2022/07/05 13:44:45;;;;;;;;;;;;;;;29.90;21.92;99698.44;8305381;28;19939;-74
2022/07/05 13:48:47;;;;;;;;;;;;;;;30.00;22.74;99703.91;8316159;28;19928;-74
2022/07/05 13:52:48;;;;;;;;;;;;;;;29.86;22.11;99704.16;8343523;28;20141;-74
2022/07/05 13:56:49;;;;;;;;;;;;;;;29.82;23.68;99692.84;8325006;28;20344;-73
2022/07/05 14:00:53;;;;;;;;;;;;;;;29.90;23.29;99686.88;8347589;28;19939;-74
2022/07/05 14:04:55;;;;;;;;;;;;;;;29.97;23.00;99686.25;8349311;28;19987;-74
2022/07/05 14:08:57;;;;;;;;;;;;;;;30.07;23.35;99686.41;8347080;28;19940;-74
2022/07/05 14:12:58;;;;;;;;;;;;;;;30.07;22.79;99686.41;8333851;28;19939;-73
2022/07/05 14:16:59;;;;;;;;;;;;;;;30.19;23.80;99680.06;8344755;28;19929;-74
2022/07/05 14:21:01;;;;;;;;;;;;;;;30.23;22.82;99673.47;8330664;28;19970;-73
2022/07/05 14:25:03;;;;;;;;;;;;;;;29.95;24.10;99680.16;8337431;28;19956;-73
2022/07/05 14:29:04;;;;;;;;;;;;;;;30.17;25.17;99679.34;8349918;28;19995;-74
2022/07/05 14:33:06;;;;;;;;;;;;;;;30.12;24.33;99664.59;8347235;28;20011;-75
2022/07/05 14:37:08;;;;;;;;;;;;;;;30.32;24.48;99671.84;8321590;28;20241;-75
2022/07/05 14:41:09;;;;;;;;;;;;;;;30.07;24.37;99673.00;8302056;28;19960;-74
2022/07/05 14:45:11;;;;;;;;;;;;;;;30.14;24.11;99671.53;8316086;28;19961;-74
2022/07/05 14:49:12;;;;;;;;;;;;;;;30.22;24.65;99663.72;8321270;28;19939;-74
2022/07/05 14:53:15;;;;;;;;;;;;;;;30.11;23.68;99668.25;8317414;28;20049;-74
2022/07/05 14:57:17;;;;;;;;;;;;;;;30.04;24.42;99660.72;8307227;28;19929;-74
2022/07/05 15:01:18;;;;;;;;;;;;;;;29.89;24.72;99650.34;8321102;28;20384;-74
2022/07/05 15:05:20;;;;;;;;;;;;;;;29.73;24.82;99651.56;8321643;28;19987;-74
2022/07/05 15:09:21;;;;;;;;;;;;;;;29.88;24.79;99654.84;8320558;28;20007;-75
2022/07/05 15:13:25;;;;;;;;;;;;;;;29.98;25.51;99657.63;8320619;28;19929;-74
2022/07/05 15:17:26;;;;;;;;;;;;;;;30.17;25.45;99646.34;8300762;28;20040;-74
2022/07/05 15:21:27;;;;;;;;;;;;;;;30.14;24.18;99646.56;8317840;28;19972;-75
2022/07/05 15:25:29;;;;;;;;;;;;;;;30.24;25.02;99652.88;8302230;28;20035;-74
2022/07/05 15:29:30;;;;;;;;;;;;;;;30.01;23.65;99652.06;8328978;28;20643;-75
2022/07/05 15:33:32;;;;;;;;;;;;;;;29.98;23.82;99647.81;8320988;28;20024;-74
2022/07/05 15:37:33;;;;;;;;;;;;;;;30.03;24.42;99644.75;8329987;28;19952;-75
2022/07/05 15:41:36;;;;;;;;;;;;;;;29.59;24.25;99637.56;8343108;28;19933;-75
2022/07/05 15:45:37;;;;;;;;;;;;;;;29.68;24.52;99635.03;8346686;28;19939;-75
2022/07/05 15:49:38;;;;;;;;;;;;;;;29.95;25.38;99645.34;8331157;28;19929;-74
2022/07/05 15:53:40;;;;;;;;;;;;;;;30.10;24.59;99629.91;8329217;28;19929;-74
2022/07/05 15:57:41;;;;;;;;;;;;;;;30.23;24.43;99637.78;8331923;28;19929;-75
2022/07/05 16:01:43;;;;;;;;;;;;;;;30.17;24.11;99641.84;8328859;28;19935;-75
2022/07/05 16:05:44;;;;;;;;;;;;;;;29.96;23.12;99643.50;8345807;28;19929;-73
2022/07/05 16:09:49;;;;;;;;;;;;;;;30.02;23.89;99645.72;8344021;28;19929;-73
2022/07/05 16:14:11;;;;;;;;;;;;;;;30.00;23.50;99645.84;8333208;28;19934;-75
2022/07/05 16:18:12;;;;;;;;;;;;;;;30.04;22.80;99635.75;8345302;28;19929;-74
2022/07/05 16:22:14;;;;;;;;;;;;;;;29.99;23.58;99644.16;8345252;28;19928;-74
2022/07/05 16:26:15;;;;;;;;;;;;;;;29.81;23.10;99629.56;8335518;28;19984;-74
2022/07/05 16:30:17;;;;;;;;;;;;;;;29.82;23.10;99631.25;8339050;28;19933;-75
2022/07/05 16:34:19;;;;;;;;;;;;;;;29.75;22.73;99627.34;8345950;28;19939;-74
2022/07/05 16:38:20;;;;;;;;;;;;;;;29.57;23.86;99637.69;8324570;28;19928;-74
2022/07/05 16:42:21;;;;;;;;;;;;;;;29.35;23.62;99635.84;8345426;28;20625;-75
2022/07/05 16:46:23;;;;;;;;;;;;;;;28.76;23.95;99632.38;8345289;28;19929;-75
2022/07/05 16:50:24;;;;;;;;;;;;;;;28.45;25.62;99634.69;8307048;28;20649;-74
2022/07/05 16:54:26;;;;;;;;;;;;;;;28.19;25.75;99636.59;8346251;28;19972;-74
2022/07/05 16:58:30;;;;;;;;;;;;;;;27.90;25.10;99632.50;8337224;28;19962;-74
2022/07/05 17:02:36;;;;;;;;;;;;;;;27.52;25.26;99632.53;8343243;28;19928;-75
2022/07/05 17:06:38;;;;;;;;;;;;;;;27.25;25.91;99633.47;8322781;28;19937;-74
2022/07/05 17:10:39;;;;;;;;;;;;;;;26.98;25.47;99638.88;8343666;28;19971;-75
2022/07/05 17:14:40;;;;;;;;;;;;;;;26.80;26.15;99638.31;8339659;28;19998;-74
2022/07/05 17:18:43;;;;;;;;;;;;;;;26.58;26.07;99645.19;8325760;28;19929;-74
2022/07/05 17:22:48;;;;;;;;;;;;;;;26.39;26.17;99637.53;8342169;28;19979;-74
2022/07/05 17:26:49;;;;;;;;;;;;;;;26.22;26.78;99637.75;8343696;28;19979;-74
2022/07/05 17:30:51;;;;;;;;;;;;;;;26.06;27.41;99640.56;8312710;28;21091;-74
2022/07/05 17:34:52;;;;;;;;;;;;;;;25.92;27.48;99644.09;8347651;28;19928;-74
2022/07/05 17:38:54;;;;;;;;;;;;;;;25.64;27.65;99644.06;8358807;28;20329;-74
2022/07/05 17:43:01;;;;;;;;;;;;;;;25.55;28.17;99650.84;8333484;28;19935;-74
2022/07/05 17:47:03;;;;;;;;;;;;;;;25.36;29.44;99656.44;8365372;28;19963;-73
2022/07/05 17:53:11;;;;;;;1999.90;999.90;;;;;;;25.35;29.47;99652.06;8534436;27;20380;-75
2022/07/05 17:57:13;;;;;;;1999.90;999.90;;;;;;;25.18;30.17;99665.50;8522466;27;20081;-76
2022/07/05 18:01:16;;;;;;;1999.90;999.90;;;;;;;24.99;30.26;99668.38;8510456;27;20852;-76
2022/07/05 18:05:19;;;;;;;1999.90;999.90;;;;;;;24.85;30.75;99663.88;8523416;27;20038;-76
2022/07/05 18:09:20;;;;;;;1999.90;999.90;;;;;;;24.72;30.90;99662.88;8500566;27;20478;-75
2022/07/05 18:13:22;;;;;;;;;;;;;;;24.51;31.96;99672.09;8506225;27;20126;-76
2022/07/05 18:17:25;;;;;;;1999.90;999.90;;;;;;;24.32;32.69;99673.13;8490444;27;19975;-75
2022/07/05 18:21:26;;;;;;;1999.90;999.90;;;;;;;24.13;34.20;99677.72;8506490;27;20034;-76
2022/07/05 18:25:28;;;;;;;1999.90;999.90;;;;;;;23.87;35.66;99678.28;8488911;27;20074;-75
2022/07/05 18:29:29;;;;;;;1999.90;999.90;;;;;;;23.76;34.33;99678.88;8504432;27;20093;-75
2022/07/05 18:33:31;;;;;;;1999.90;999.90;;;;;;;23.62;35.46;99684.06;8490975;27;20047;-75
2022/07/05 18:37:34;;;;;;;1999.90;999.90;;;;;;;23.49;34.83;99678.50;8494218;27;20042;-75
2022/07/05 18:41:35;;;;;;;1999.90;999.90;;;;;;;23.37;36.85;99692.41;8515308;27;20065;-75
2022/07/05 18:45:37;;;;;;;1999.90;999.90;;;;;;;23.05;38.77;99684.31;8480031;27;20042;-75
2022/07/05 18:49:38;;;;;;;1999.90;999.90;;;;;;;22.78;39.52;99691.81;8517035;27;20693;-75
2022/07/05 18:53:40;;;;;;;1999.90;999.90;;;;;;;22.58;41.76;99697.22;8523144;27;20094;-75
2022/07/05 18:57:42;;;;;;;1999.90;999.90;;;;;;;22.36;41.83;99699.22;8520235;27;20494;-75
2022/07/05 19:01:43;;;;;;;1999.90;999.90;;;;;;;22.09;42.79;99706.66;8504725;27;20039;-75
2022/07/05 19:13:40;;;;;;;1999.90;999.90;;;;;;;21.82;41.69;99709.59;8467599;27;20055;-75
2022/07/05 19:14:27;;;;;;;1999.90;999.90;;;;;;;21.36;43.76;99710.78;8500681;27;20459;-75
2022/07/05 19:18:29;;;;;;;1999.90;999.90;;;;;;;21.06;43.67;99713.78;8484606;27;20081;-75
2022/07/05 19:22:31;;;;;;;1999.90;999.90;;;;;;;20.86;42.70;99716.41;8467607;27;20053;-75
2022/07/05 19:26:32;;;;;;;1999.90;999.90;;;;;;;20.72;43.60;99714.31;8480752;27;20078;-75
2022/07/05 19:30:34;;;;;;;1999.90;999.90;;;;;;;20.57;44.30;99714.94;8480586;27;20118;-76
2022/07/05 19:34:36;;;;;;;1999.90;999.90;;;;;;;20.37;44.74;99720.13;8504739;27;20419;-76
2022/07/05 19:38:37;;;;;;;1999.90;999.90;;;;;;;20.15;45.14;99725.38;8505564;27;20208;-76
2022/07/05 19:42:38;;;;;;;1999.90;999.90;;;;;;;19.96;45.83;99737.50;8500764;27;20124;-75
2022/07/05 19:46:40;;;;;;;1999.90;999.90;;;;;;;19.78;46.96;99734.63;8501985;27;20057;-76
2022/07/05 19:50:42;;;;;;;;;;;;;;;19.64;46.80;99739.53;8469281;27;20646;-75
2022/07/05 19:54:43;;;;;;;1999.90;999.90;;;;;;;19.42;47.81;99744.69;8467402;27;19927;-76
2022/07/05 19:58:45;;;;;;;1999.90;999.90;;;;;;;19.29;48.03;99751.28;8484463;27;20050;-77
2022/07/05 20:02:47;;;;;;;1999.90;999.90;;;;;;;19.26;49.16;99759.28;8468213;27;20039;-77
2022/07/05 20:06:49;;;;;;;;;;;;;;;19.18;49.30;99770.06;8484844;27;20055;-77
2022/07/05 20:10:50;;;;;;;1999.90;999.90;;;;;;;19.11;49.98;99767.69;8465324;27;19923;-77
2022/07/05 20:14:52;;;;;;;1999.90;999.90;;;;;;;19.00;50.67;99779.41;8464405;27;20082;-77
2022/07/05 20:18:54;;;;;;;1999.90;999.90;;;;;;;18.90;50.96;99778.00;8482690;27;20047;-77
2022/07/05 20:22:55;;;;;;;1999.90;999.90;;;;;;;18.78;51.46;99790.69;8486706;27;20054;-77
2022/07/05 20:26:57;;;;;;;1999.90;999.90;;;;;;;18.62;51.41;99790.28;8465486;27;20054;-77
2022/07/05 20:30:58;;;;;;;1999.90;999.90;;;;;;;18.42;52.42;99793.50;8447520;27;20506;-78
2022/07/05 20:35:00;;;;;;;1999.90;999.90;;;;;;;18.31;52.56;99806.09;8485486;27;20630;-77
2022/07/05 20:39:02;;;;;;;1999.90;999.90;;;;;;;18.26;53.03;99808.00;8447746;27;20031;-77
2022/07/05 20:43:03;;;;;;;1999.90;999.90;;;;;;;18.12;52.90;99819.78;8467272;27;20031;-77
2022/07/05 20:47:05;;;;;;;1999.90;999.90;;;;;;;17.93;54.09;99820.31;8484701;27;20126;-77
2022/07/05 20:51:07;;;;;;;1999.90;999.90;;;;;;;17.77;54.89;99826.03;8485273;27;20803;-77
2022/07/05 20:55:08;;;;;;;1999.90;999.90;;;;;;;17.64;54.43;99832.47;8448345;27;20043;-78
2022/07/05 20:59:10;;;;;;;1999.90;999.90;;;;;;;17.60;54.53;99835.22;8460407;27;20050;-77